Kivalina, AK

12:40 AM AKDT on August 03, 2015 (GMT -0800)
Kivalina | | Change Station
CLOSE
Current Station
Airport
Location: Kivalina,
Elevation: 10 ft
Nearby Weather Stations

Elev 10 ft 67.73 °N, 164.55 °W | Updated 47 minutes ago

Haze
Haze
53 °F
Feels Like 53 °F
N
17
Wind Variable Wind from South

Today
High -- | Low -- °F
--% Chance of Precip.
Yesterday
High -- | Low -- °F
Precip. -- in
5:28 AM 0:36 AM
Waning Gibbous, 88% visible
Pressure 29.98 in
Visibility 5.0 miles
Clouds Clear
Dew Point 48 °F
Humidity 83%
Rainfall 0.00 in
Snow Depth Not available.
UV 0 out of 12
Pollen Not available.
Air Quality Not available.
Flu Activity Not available.
METAR PAVL 030753Z AUTO 19015KT 5SM HZ CLR 12/09 A2998 RMK AO2 SLP151 T01170089 TSNO

More Conditions Fewer Conditions

Pressure 29.98 in
Visibility 5.0 miles
Clouds Clear
Dew Point 48 °F
Humidity 83%
Rainfall 0.00 in
Snow Depth Not available.
UV 0 out of 12
Pollen Not available.
Air Quality Not available.
Flu Activity Not available.
METAR PAVL 030753Z AUTO 19015KT 5SM HZ CLR 12/09 A2998 RMK AO2 SLP151 T01170089 TSNO

More Conditions Fewer Conditions

10-Day Weather Forecast

×

Almanac

Astronomy

Aug. 03, 2015 Rise Set
Actual Time
Civil Twilight
Nautical Twilight
Astronomical Twilight
Moon
Length of Visible Light
Length of Day
Tomorrow will be .
, % of the Moon is Illuminated

Today's Extremes

State Highs State Lows

Community

WunderPhotos

Upload Photos

1,843,592 photos uploaded!

WunderBlogs® & News

Nearby

Air Quality

  Air Quality AQ Index Pollutant
Not available.

Snow Depth

Station Depth Elevation

Earthquake Activity

City Distance Mag. Time & Date
Minimum magnitude displayed is 2.5.

Coastal Water Temperatures

Place Temperature

Stations

Nearby Weather Stations

Station Location Temp. Windchill Dew Point Humidity Wind Precip. Elev Updated Type